Startpagina
METAR-TAF:

METAR-TAF

Vliegvelden :

Curaçao International Airport

Curaçao, Nederlandse Antillen

breedte: 12-12N, lengte: 068-58W, hoogte: 9 m

Actueel weer

Dit bericht is 11 minuten geleden gemaakt, om 05:40 UTC
Wind 12 kt uit het oostnoordoosten
Temperatuur 27°C
Vochtigheid 84%
Druk 1009 hPa
Zicht 10 km of meer
Verspreide wolken op 4000 ft

METAR: TNCC 220540Z AUTO 07012KT 9999 SCT040 27/24 Q1009

Tijdstip: 01:51 (05:51 UTC)

Verwachting

Dit bericht is 1 uur en het 51 minuten geleden gemaakt, om 04:00 UTC
Verwachting geldig van 22 om 06 UTC tot 23 om 06 UTC
Wind 11 kt uit het oostnoordoosten
Zicht 10 km of meer
Verspreide wolken op 2000 ft
Tijdelijke
van 22 om 06 UTC tot 22 om 18 UTC
Zicht: 7000 m
Gebroken wolken op 1500 ft
regenbuien

TAF: TNCC 220400Z 2206/2306 07011KT 9999 SCT020 TEMPO 2206/2218 7000 SHRA BKN015

Waarnemingen en weersverwachtingen van meer dan 4000 vliegvelden (METAR en TAF).

De beschikbare stations zijn de gele en rode punten op de kaart.

Ga met uw muis naar het station om de naam te zien.

Klik dan om waarnemingen en weersverwachtingen te zien.

kaart wijzigen: klik op de groene knoppen met een zwart kruis om in te zoomen, op de groene knop met een streepje om uit te zoomen of op de groene pijlen voor aangrenzende kaarten.


METAR-TAF: